YSB weather

Sudbury Airport
Sudbury, Ontario, Canada

Public forecast

Using degrees Celsius for public forecast. Weather courtesy of forecast.io.

Current aviation weather report (METAR) for Sudbury Airport

Retrieved 2019/10/19 20:00 UTC (52 minutes ago):

CYSB 192000Z 19013KT 20SM FEW020 SCT120 BKN240 10/04 A2993 RMK SC1AC3CI1 SLP147

Aviation forecast (TAF) for Sudbury Airport

Retrieved 2019/10/19 20:42 UTC (10 minutes ago):

TAF CYSB 191938Z 1920/2008 29012KT P6SM FEW025 SCT120 BKN240 BECMG 2000/2002 15010KT FM200600 14010KT P6SM SCT200 PROB30 2006/2008 2SM BR BKN005 RMK NXT FCST BY 200200Z